sensor_id;sensor_type;location;lat;lon;timestamp;P1;durP1;ratioP1;P2;durP2;ratioP2
24739;SDS011;45234;48.148;17.128;2024-02-04T00:00:25;6.22;;;3.67;;
24739;SDS011;45234;48.148;17.128;2024-02-04T00:02:54;5.72;;;3.65;;
24739;SDS011;45234;48.148;17.128;2024-02-04T00:05:22;4.35;;;3.80;;
24739;SDS011;45234;48.148;17.128;2024-02-04T00:07:49;4.55;;;3.97;;
24739;SDS011;45234;48.148;17.128;2024-02-04T00:10:15;4.88;;;3.38;;
24739;SDS011;45234;48.148;17.128;2024-02-04T00:12:44;6.38;;;4.70;;
24739;SDS011;45234;48.148;17.128;2024-02-04T00:15:11;4.35;;;3.65;;
24739;SDS011;45234;48.148;17.128;2024-02-04T00:17:38;4.80;;;4.00;;
24739;SDS011;45234;48.148;17.128;2024-02-04T00:20:05;4.68;;;3.90;;
24739;SDS011;45234;48.148;17.128;2024-02-04T00:22:33;4.15;;;3.60;;
24739;SDS011;45234;48.148;17.128;2024-02-04T00:25:00;6.43;;;4.32;;
24739;SDS011;45234;48.148;17.128;2024-02-04T00:27:31;3.85;;;3.42;;
24739;SDS011;45234;48.148;17.128;2024-02-04T00:29:58;6.05;;;3.63;;
24739;SDS011;45234;48.148;17.128;2024-02-04T00:32:28;4.40;;;3.97;;
24739;SDS011;45234;48.148;17.128;2024-02-04T00:34:55;4.10;;;3.70;;
24739;SDS011;45234;48.148;17.128;2024-02-04T00:37:22;4.75;;;3.83;;
24739;SDS011;45234;48.148;17.128;2024-02-04T00:39:49;5.00;;;3.65;;
24739;SDS011;45234;48.148;17.128;2024-02-04T00:42:16;3.88;;;3.53;;
24739;SDS011;45234;48.148;17.128;2024-02-04T00:44:43;4.90;;;4.13;;
24739;SDS011;45234;48.148;17.128;2024-02-04T00:47:10;5.07;;;3.85;;
24739;SDS011;45234;48.148;17.128;2024-02-04T00:49:39;4.93;;;3.63;;
24739;SDS011;45234;48.148;17.128;2024-02-04T00:52:06;4.35;;;3.90;;
24739;SDS011;45234;48.148;17.128;2024-02-04T00:54:33;5.15;;;4.05;;
24739;SDS011;45234;48.148;17.128;2024-02-04T00:57:00;5.03;;;3.78;;
24739;SDS011;45234;48.148;17.128;2024-02-04T00:59:27;3.92;;;3.58;;
24739;SDS011;45234;48.148;17.128;2024-02-04T01:01:54;4.40;;;3.90;;
24739;SDS011;45234;48.148;17.128;2024-02-04T01:04:21;5.32;;;4.53;;
24739;SDS011;45234;48.148;17.128;2024-02-04T01:06:49;4.65;;;4.20;;
24739;SDS011;45234;48.148;17.128;2024-02-04T01:09:27;4.97;;;3.97;;
24739;SDS011;45234;48.148;17.128;2024-02-04T01:11:55;5.40;;;4.28;;
24739;SDS011;45234;48.148;17.128;2024-02-04T01:14:22;4.95;;;4.20;;
24739;SDS011;45234;48.148;17.128;2024-02-04T01:16:49;5.60;;;4.63;;
24739;SDS011;45234;48.148;17.128;2024-02-04T01:19:16;4.40;;;4.00;;
24739;SDS011;45234;48.148;17.128;2024-02-04T01:21:43;7.05;;;5.07;;
24739;SDS011;45234;48.148;17.128;2024-02-04T01:24:10;5.07;;;4.55;;
24739;SDS011;45234;48.148;17.128;2024-02-04T01:26:37;6.25;;;4.47;;
24739;SDS011;45234;48.148;17.128;2024-02-04T01:29:04;5.22;;;4.38;;
24739;SDS011;45234;48.148;17.128;2024-02-04T01:31:31;6.20;;;4.43;;
24739;SDS011;45234;48.148;17.128;2024-02-04T01:33:58;5.35;;;4.85;;
24739;SDS011;45234;48.148;17.128;2024-02-04T01:36:26;6.15;;;5.20;;
24739;SDS011;45234;48.148;17.128;2024-02-04T01:38:53;4.65;;;4.25;;
24739;SDS011;45234;48.148;17.128;2024-02-04T01:41:20;5.70;;;4.38;;
24739;SDS011;45234;48.148;17.128;2024-02-04T01:43:47;4.57;;;4.15;;
24739;SDS011;45234;48.148;17.128;2024-02-04T01:46:14;4.97;;;4.45;;
24739;SDS011;45234;48.148;17.128;2024-02-04T01:48:41;4.65;;;4.22;;
24739;SDS011;45234;48.148;17.128;2024-02-04T01:51:08;5.22;;;4.38;;
24739;SDS011;45234;48.148;17.128;2024-02-04T01:53:35;5.47;;;4.63;;
24739;SDS011;45234;48.148;17.128;2024-02-04T01:56:05;4.60;;;4.00;;
24739;SDS011;45234;48.148;17.128;2024-02-04T01:58:32;5.75;;;4.40;;
24739;SDS011;45234;48.148;17.128;2024-02-04T02:01:00;5.97;;;5.22;;
24739;SDS011;45234;48.148;17.128;2024-02-04T02:03:27;4.95;;;4.40;;
24739;SDS011;45234;48.148;17.128;2024-02-04T02:05:56;5.22;;;4.72;;
24739;SDS011;45234;48.148;17.128;2024-02-04T02:08:24;5.35;;;4.85;;
24739;SDS011;45234;48.148;17.128;2024-02-04T02:10:54;5.50;;;5.00;;
24739;SDS011;45234;48.148;17.128;2024-02-04T02:13:28;4.82;;;4.18;;
24739;SDS011;45234;48.148;17.128;2024-02-04T02:16:01;5.70;;;4.25;;
24739;SDS011;45234;48.148;17.128;2024-02-04T02:18:49;4.93;;;4.43;;
24739;SDS011;45234;48.148;17.128;2024-02-04T02:24:10;5.93;;;4.40;;
24739;SDS011;45234;48.148;17.128;2024-02-04T02:26:44;5.40;;;4.80;;
24739;SDS011;45234;48.148;17.128;2024-02-04T02:29:11;5.15;;;4.65;;
24739;SDS011;45234;48.148;17.128;2024-02-04T02:31:39;5.18;;;4.60;;
24739;SDS011;45234;48.148;17.128;2024-02-04T02:34:14;5.10;;;4.60;;
24739;SDS011;45234;48.148;17.128;2024-02-04T02:36:45;5.82;;;4.90;;
24739;SDS011;45234;48.148;17.128;2024-02-04T02:39:21;5.70;;;4.47;;
24739;SDS011;45234;48.148;17.128;2024-02-04T02:44:29;8.27;;;4.97;;
24739;SDS011;45234;48.148;17.128;2024-02-04T02:46:58;5.35;;;4.63;;
24739;SDS011;45234;48.148;17.128;2024-02-04T02:49:26;5.32;;;4.53;;
24739;SDS011;45234;48.148;17.128;2024-02-04T02:51:53;6.18;;;4.55;;
24739;SDS011;45234;48.148;17.128;2024-02-04T02:54:21;5.10;;;4.60;;
24739;SDS011;45234;48.148;17.128;2024-02-04T02:56:48;5.95;;;4.30;;
24739;SDS011;45234;48.148;17.128;2024-02-04T02:59:15;5.32;;;4.40;;
24739;SDS011;45234;48.148;17.128;2024-02-04T03:01:42;4.70;;;4.30;;
24739;SDS011;45234;48.148;17.128;2024-02-04T03:04:09;4.20;;;3.80;;
24739;SDS011;45234;48.148;17.128;2024-02-04T03:06:36;6.78;;;4.25;;
24739;SDS011;45234;48.148;17.128;2024-02-04T03:09:03;4.55;;;4.10;;
24739;SDS011;45234;48.148;17.128;2024-02-04T03:11:30;4.10;;;3.70;;
24739;SDS011;45234;48.148;17.128;2024-02-04T03:13:57;3.58;;;3.28;;
24739;SDS011;45234;48.148;17.128;2024-02-04T03:16:24;3.85;;;3.50;;
24739;SDS011;45234;48.148;17.128;2024-02-04T03:18:52;3.90;;;3.50;;
24739;SDS011;45234;48.148;17.128;2024-02-04T03:21:19;2.92;;;2.70;;
24739;SDS011;45234;48.148;17.128;2024-02-04T03:23:47;3.35;;;3.05;;
24739;SDS011;45234;48.148;17.128;2024-02-04T03:26:16;3.53;;;3.03;;
24739;SDS011;45234;48.148;17.128;2024-02-04T03:28:47;3.17;;;2.97;;
24739;SDS011;45234;48.148;17.128;2024-02-04T03:31:20;2.90;;;2.70;;
24739;SDS011;45234;48.148;17.128;2024-02-04T03:33:50;3.42;;;2.95;;
24739;SDS011;45234;48.148;17.128;2024-02-04T03:36:18;4.57;;;3.08;;
24739;SDS011;45234;48.148;17.128;2024-02-04T03:38:47;3.80;;;3.20;;
24739;SDS011;45234;48.148;17.128;2024-02-04T03:41:15;5.45;;;3.38;;
24739;SDS011;45234;48.148;17.128;2024-02-04T03:43:42;3.25;;;2.95;;
24739;SDS011;45234;48.148;17.128;2024-02-04T03:46:16;3.35;;;3.05;;
24739;SDS011;45234;48.148;17.128;2024-02-04T03:51:17;3.13;;;2.83;;
24739;SDS011;45234;48.148;17.128;2024-02-04T03:53:47;4.68;;;3.70;;
24739;SDS011;45234;48.148;17.128;2024-02-04T03:56:15;3.42;;;3.08;;
24739;SDS011;45234;48.148;17.128;2024-02-04T03:58:42;5.47;;;3.95;;
24739;SDS011;45234;48.148;17.128;2024-02-04T04:01:10;4.13;;;3.72;;
24739;SDS011;45234;48.148;17.128;2024-02-04T04:03:41;3.50;;;3.20;;
24739;SDS011;45234;48.148;17.128;2024-02-04T04:06:08;3.50;;;3.17;;
24739;SDS011;45234;48.148;17.128;2024-02-04T04:08:37;3.92;;;3.50;;
24739;SDS011;45234;48.148;17.128;2024-02-04T04:11:06;3.75;;;3.42;;
24739;SDS011;45234;48.148;17.128;2024-02-04T04:13:34;3.20;;;2.92;;
24739;SDS011;45234;48.148;17.128;2024-02-04T04:16:02;4.00;;;3.60;;
24739;SDS011;45234;48.148;17.128;2024-02-04T04:18:30;4.13;;;3.72;;
24739;SDS011;45234;48.148;17.128;2024-02-04T04:20:57;3.92;;;3.53;;
24739;SDS011;45234;48.148;17.128;2024-02-04T04:23:24;3.97;;;3.67;;
24739;SDS011;45234;48.148;17.128;2024-02-04T04:25:51;4.32;;;3.92;;
24739;SDS011;45234;48.148;17.128;2024-02-04T04:28:18;4.00;;;3.40;;
24739;SDS011;45234;48.148;17.128;2024-02-04T04:30:44;3.85;;;3.50;;
24739;SDS011;45234;48.148;17.128;2024-02-04T04:33:11;4.03;;;3.63;;
24739;SDS011;45234;48.148;17.128;2024-02-04T04:35:39;4.15;;;3.75;;
24739;SDS011;45234;48.148;17.128;2024-02-04T04:38:06;3.78;;;3.42;;
24739;SDS011;45234;48.148;17.128;2024-02-04T04:40:33;3.88;;;3.58;;
24739;SDS011;45234;48.148;17.128;2024-02-04T04:43:00;3.63;;;3.33;;
24739;SDS011;45234;48.148;17.128;2024-02-04T04:45:27;4.03;;;3.60;;
24739;SDS011;45234;48.148;17.128;2024-02-04T04:47:54;4.60;;;3.67;;
24739;SDS011;45234;48.148;17.128;2024-02-04T04:50:21;3.60;;;3.30;;
24739;SDS011;45234;48.148;17.128;2024-02-04T04:52:48;3.88;;;3.53;;
24739;SDS011;45234;48.148;17.128;2024-02-04T04:55:15;3.45;;;3.15;;
24739;SDS011;45234;48.148;17.128;2024-02-04T04:57:43;3.90;;;3.50;;
24739;SDS011;45234;48.148;17.128;2024-02-04T05:00:10;3.88;;;3.47;;
24739;SDS011;45234;48.148;17.128;2024-02-04T05:02:42;4.18;;;3.78;;
24739;SDS011;45234;48.148;17.128;2024-02-04T05:05:10;3.65;;;3.35;;
24739;SDS011;45234;48.148;17.128;2024-02-04T05:07:38;3.38;;;3.08;;
24739;SDS011;45234;48.148;17.128;2024-02-04T05:10:05;3.83;;;3.30;;
24739;SDS011;45234;48.148;17.128;2024-02-04T05:12:33;3.42;;;3.13;;
24739;SDS011;45234;48.148;17.128;2024-02-04T05:15:01;3.40;;;3.10;;
24739;SDS011;45234;48.148;17.128;2024-02-04T05:17:30;6.18;;;3.40;;
24739;SDS011;45234;48.148;17.128;2024-02-04T05:19:57;3.22;;;2.92;;
24739;SDS011;45234;48.148;17.128;2024-02-04T05:22:25;3.17;;;2.88;;
24739;SDS011;45234;48.148;17.128;2024-02-04T05:24:52;3.67;;;3.22;;
24739;SDS011;45234;48.148;17.128;2024-02-04T05:27:19;3.78;;;3.47;;
24739;SDS011;45234;48.148;17.128;2024-02-04T05:29:45;2.83;;;2.53;;
24739;SDS011;45234;48.148;17.128;2024-02-04T05:32:12;3.30;;;2.83;;
24739;SDS011;45234;48.148;17.128;2024-02-04T05:34:40;3.25;;;2.95;;
24739;SDS011;45234;48.148;17.128;2024-02-04T05:37:07;3.35;;;2.90;;
24739;SDS011;45234;48.148;17.128;2024-02-04T05:39:34;3.70;;;3.22;;
24739;SDS011;45234;48.148;17.128;2024-02-04T05:42:01;3.63;;;3.30;;
24739;SDS011;45234;48.148;17.128;2024-02-04T05:44:28;3.53;;;3.22;;
24739;SDS011;45234;48.148;17.128;2024-02-04T05:46:55;3.60;;;3.00;;
24739;SDS011;45234;48.148;17.128;2024-02-04T05:49:22;3.45;;;3.05;;
24739;SDS011;45234;48.148;17.128;2024-02-04T05:51:49;3.90;;;3.40;;
24739;SDS011;45234;48.148;17.128;2024-02-04T05:54:16;4.68;;;3.13;;
24739;SDS011;45234;48.148;17.128;2024-02-04T05:56:43;3.47;;;2.83;;
24739;SDS011;45234;48.148;17.128;2024-02-04T05:59:10;2.95;;;2.67;;
24739;SDS011;45234;48.148;17.128;2024-02-04T06:01:37;3.00;;;2.70;;
24739;SDS011;45234;48.148;17.128;2024-02-04T06:04:04;2.92;;;2.58;;
24739;SDS011;45234;48.148;17.128;2024-02-04T06:06:31;3.33;;;2.72;;
24739;SDS011;45234;48.148;17.128;2024-02-04T06:08:58;2.58;;;2.38;;
24739;SDS011;45234;48.148;17.128;2024-02-04T06:11:25;3.80;;;2.50;;
24739;SDS011;45234;48.148;17.128;2024-02-04T06:13:52;2.95;;;2.60;;
24739;SDS011;45234;48.148;17.128;2024-02-04T06:16:19;2.60;;;2.22;;
24739;SDS011;45234;48.148;17.128;2024-02-04T06:18:46;2.22;;;1.98;;
24739;SDS011;45234;48.148;17.128;2024-02-04T06:21:13;2.28;;;2.08;;
24739;SDS011;45234;48.148;17.128;2024-02-04T06:23:41;3.75;;;2.58;;
24739;SDS011;45234;48.148;17.128;2024-02-04T06:26:08;2.78;;;2.00;;
24739;SDS011;45234;48.148;17.128;2024-02-04T06:28:35;2.30;;;1.88;;
24739;SDS011;45234;48.148;17.128;2024-02-04T06:31:02;2.22;;;2.03;;
24739;SDS011;45234;48.148;17.128;2024-02-04T06:33:29;2.45;;;1.92;;
24739;SDS011;45234;48.148;17.128;2024-02-04T06:35:56;4.13;;;2.55;;
24739;SDS011;45234;48.148;17.128;2024-02-04T06:38:23;2.20;;;2.00;;
24739;SDS011;45234;48.148;17.128;2024-02-04T06:40:50;2.90;;;1.85;;
24739;SDS011;45234;48.148;17.128;2024-02-04T06:43:17;2.50;;;2.10;;
24739;SDS011;45234;48.148;17.128;2024-02-04T06:45:44;3.10;;;1.70;;
24739;SDS011;45234;48.148;17.128;2024-02-04T06:48:12;4.68;;;1.92;;
24739;SDS011;45234;48.148;17.128;2024-02-04T06:50:39;1.73;;;1.63;;
24739;SDS011;45234;48.148;17.128;2024-02-04T06:53:06;2.08;;;1.80;;
24739;SDS011;45234;48.148;17.128;2024-02-04T06:55:33;1.80;;;1.70;;
24739;SDS011;45234;48.148;17.128;2024-02-04T06:58:00;2.05;;;1.85;;
24739;SDS011;45234;48.148;17.128;2024-02-04T07:00:27;1.80;;;1.65;;
24739;SDS011;45234;48.148;17.128;2024-02-04T07:02:54;1.83;;;1.65;;
24739;SDS011;45234;48.148;17.128;2024-02-04T07:05:21;1.60;;;1.30;;
24739;SDS011;45234;48.148;17.128;2024-02-04T07:07:48;2.33;;;2.13;;
24739;SDS011;45234;48.148;17.128;2024-02-04T07:10:15;2.03;;;1.63;;
24739;SDS011;45234;48.148;17.128;2024-02-04T07:12:43;2.20;;;2.00;;
24739;SDS011;45234;48.148;17.128;2024-02-04T07:15:10;2.50;;;1.70;;
24739;SDS011;45234;48.148;17.128;2024-02-04T07:17:37;2.05;;;1.67;;
24739;SDS011;45234;48.148;17.128;2024-02-04T07:20:04;3.63;;;2.00;;
24739;SDS011;45234;48.148;17.128;2024-02-04T07:22:32;2.63;;;2.05;;
24739;SDS011;45234;48.148;17.128;2024-02-04T07:25:03;2.97;;;2.10;;
24739;SDS011;45234;48.148;17.128;2024-02-04T07:27:31;1.58;;;1.48;;
24739;SDS011;45234;48.148;17.128;2024-02-04T07:29:58;2.72;;;1.85;;
24739;SDS011;45234;48.148;17.128;2024-02-04T07:32:25;2.85;;;2.22;;
24739;SDS011;45234;48.148;17.128;2024-02-04T07:34:52;2.35;;;2.15;;
24739;SDS011;45234;48.148;17.128;2024-02-04T07:37:19;3.00;;;1.85;;
24739;SDS011;45234;48.148;17.128;2024-02-04T07:39:46;2.88;;;2.15;;
24739;SDS011;45234;48.148;17.128;2024-02-04T07:42:13;4.38;;;2.40;;
24739;SDS011;45234;48.148;17.128;2024-02-04T07:44:40;2.35;;;2.15;;
24739;SDS011;45234;48.148;17.128;2024-02-04T07:47:07;2.60;;;2.40;;
24739;SDS011;45234;48.148;17.128;2024-02-04T07:49:34;2.17;;;1.90;;
24739;SDS011;45234;48.148;17.128;2024-02-04T07:52:01;2.20;;;2.00;;
24739;SDS011;45234;48.148;17.128;2024-02-04T07:54:29;2.30;;;2.10;;
24739;SDS011;45234;48.148;17.128;2024-02-04T07:56:56;2.90;;;2.00;;
24739;SDS011;45234;48.148;17.128;2024-02-04T07:59:23;2.47;;;2.28;;
24739;SDS011;45234;48.148;17.128;2024-02-04T08:01:50;2.38;;;2.15;;
24739;SDS011;45234;48.148;17.128;2024-02-04T08:04:17;2.22;;;2.03;;
24739;SDS011;45234;48.148;17.128;2024-02-04T08:06:44;2.20;;;1.92;;
24739;SDS011;45234;48.148;17.128;2024-02-04T08:09:11;2.63;;;2.10;;
24739;SDS011;45234;48.148;17.128;2024-02-04T08:11:38;1.80;;;1.70;;
24739;SDS011;45234;48.148;17.128;2024-02-04T08:14:05;2.58;;;1.90;;
24739;SDS011;45234;48.148;17.128;2024-02-04T08:16:32;1.42;;;1.33;;
24739;SDS011;45234;48.148;17.128;2024-02-04T08:18:59;1.90;;;1.70;;
24739;SDS011;45234;48.148;17.128;2024-02-04T08:21:26;1.55;;;1.30;;
24739;SDS011;45234;48.148;17.128;2024-02-04T08:23:54;1.30;;;1.20;;
24739;SDS011;45234;48.148;17.128;2024-02-04T08:26:20;2.95;;;1.50;;
24739;SDS011;45234;48.148;17.128;2024-02-04T08:28:47;1.70;;;1.50;;
24739;SDS011;45234;48.148;17.128;2024-02-04T08:31:14;1.38;;;1.20;;
24739;SDS011;45234;48.148;17.128;2024-02-04T08:33:42;1.77;;;1.58;;
24739;SDS011;45234;48.148;17.128;2024-02-04T08:36:09;1.60;;;1.42;;
24739;SDS011;45234;48.148;17.128;2024-02-04T08:38:36;2.22;;;1.63;;
24739;SDS011;45234;48.148;17.128;2024-02-04T08:41:03;2.33;;;1.35;;
24739;SDS011;45234;48.148;17.128;2024-02-04T08:43:30;1.90;;;1.58;;
24739;SDS011;45234;48.148;17.128;2024-02-04T08:45:57;1.30;;;1.17;;
24739;SDS011;45234;48.148;17.128;2024-02-04T08:48:35;1.27;;;1.17;;
24739;SDS011;45234;48.148;17.128;2024-02-04T08:51:03;1.40;;;1.20;;
24739;SDS011;45234;48.148;17.128;2024-02-04T08:53:30;1.67;;;1.20;;
24739;SDS011;45234;48.148;17.128;2024-02-04T08:55:57;1.42;;;1.20;;
24739;SDS011;45234;48.148;17.128;2024-02-04T08:58:24;1.70;;;1.40;;
24739;SDS011;45234;48.148;17.128;2024-02-04T09:00:51;2.22;;;1.50;;
24739;SDS011;45234;48.148;17.128;2024-02-04T09:03:18;1.65;;;1.23;;
24739;SDS011;45234;48.148;17.128;2024-02-04T09:05:45;1.40;;;1.00;;
24739;SDS011;45234;48.148;17.128;2024-02-04T09:08:11;1.63;;;1.10;;
24739;SDS011;45234;48.148;17.128;2024-02-04T09:10:38;2.58;;;1.50;;
24739;SDS011;45234;48.148;17.128;2024-02-04T09:13:05;2.05;;;1.00;;
24739;SDS011;45234;48.148;17.128;2024-02-04T09:15:32;1.38;;;0.85;;
24739;SDS011;45234;48.148;17.128;2024-02-04T09:18:00;1.27;;;1.00;;
24739;SDS011;45234;48.148;17.128;2024-02-04T09:20:28;2.08;;;1.10;;
24739;SDS011;45234;48.148;17.128;2024-02-04T09:22:55;1.20;;;1.10;;
24739;SDS011;45234;48.148;17.128;2024-02-04T09:25:22;1.10;;;0.90;;
24739;SDS011;45234;48.148;17.128;2024-02-04T09:27:50;1.10;;;0.95;;
24739;SDS011;45234;48.148;17.128;2024-02-04T09:30:17;1.00;;;0.90;;
24739;SDS011;45234;48.148;17.128;2024-02-04T09:32:44;1.20;;;1.08;;
24739;SDS011;45234;48.148;17.128;2024-02-04T09:35:13;1.10;;;0.90;;
24739;SDS011;45234;48.148;17.128;2024-02-04T09:37:41;1.23;;;1.10;;
24739;SDS011;45234;48.148;17.128;2024-02-04T09:40:09;1.10;;;0.93;;
24739;SDS011;45234;48.148;17.128;2024-02-04T09:42:36;1.13;;;0.70;;
24739;SDS011;45234;48.148;17.128;2024-02-04T09:45:04;0.80;;;0.80;;
24739;SDS011;45234;48.148;17.128;2024-02-04T09:47:32;0.90;;;0.85;;
24739;SDS011;45234;48.148;17.128;2024-02-04T09:50:01;1.02;;;0.93;;
24739;SDS011;45234;48.148;17.128;2024-02-04T09:52:29;0.85;;;0.80;;
24739;SDS011;45234;48.148;17.128;2024-02-04T09:55:00;1.77;;;0.98;;
24739;SDS011;45234;48.148;17.128;2024-02-04T09:57:29;1.83;;;0.80;;
24739;SDS011;45234;48.148;17.128;2024-02-04T09:59:56;1.50;;;1.00;;
24739;SDS011;45234;48.148;17.128;2024-02-04T10:02:24;0.85;;;0.75;;
24739;SDS011;45234;48.148;17.128;2024-02-04T10:04:59;0.65;;;0.52;;
24739;SDS011;45234;48.148;17.128;2024-02-04T10:07:28;0.90;;;0.77;;
24739;SDS011;45234;48.148;17.128;2024-02-04T10:09:55;0.70;;;0.68;;
24739;SDS011;45234;48.148;17.128;2024-02-04T10:12:22;1.15;;;0.60;;
24739;SDS011;45234;48.148;17.128;2024-02-04T10:14:49;2.28;;;0.70;;
24739;SDS011;45234;48.148;17.128;2024-02-04T10:17:16;1.88;;;0.68;;
24739;SDS011;45234;48.148;17.128;2024-02-04T10:19:47;1.50;;;1.05;;
24739;SDS011;45234;48.148;17.128;2024-02-04T10:22:14;0.90;;;0.80;;
24739;SDS011;45234;48.148;17.128;2024-02-04T10:24:43;1.15;;;0.80;;
24739;SDS011;45234;48.148;17.128;2024-02-04T10:27:12;0.70;;;0.55;;
24739;SDS011;45234;48.148;17.128;2024-02-04T10:29:54;1.08;;;0.63;;
24739;SDS011;45234;48.148;17.128;2024-02-04T10:32:21;0.80;;;0.80;;
24739;SDS011;45234;48.148;17.128;2024-02-04T10:34:51;0.88;;;0.75;;
24739;SDS011;45234;48.148;17.128;2024-02-04T10:37:18;1.13;;;0.80;;
24739;SDS011;45234;48.148;17.128;2024-02-04T10:39:45;0.63;;;0.50;;
24739;SDS011;45234;48.148;17.128;2024-02-04T10:42:12;0.70;;;0.55;;
24739;SDS011;45234;48.148;17.128;2024-02-04T10:44:40;0.73;;;0.73;;
24739;SDS011;45234;48.148;17.128;2024-02-04T10:47:11;2.55;;;0.90;;
24739;SDS011;45234;48.148;17.128;2024-02-04T10:49:45;0.80;;;0.60;;
24739;SDS011;45234;48.148;17.128;2024-02-04T10:52:19;1.88;;;0.63;;
24739;SDS011;45234;48.148;17.128;2024-02-04T10:54:49;0.93;;;0.60;;
24739;SDS011;45234;48.148;17.128;2024-02-04T10:57:19;1.00;;;0.60;;
24739;SDS011;45234;48.148;17.128;2024-02-04T10:59:52;1.00;;;0.73;;
24739;SDS011;45234;48.148;17.128;2024-02-04T11:02:19;0.80;;;0.52;;
24739;SDS011;45234;48.148;17.128;2024-02-04T11:04:48;1.42;;;1.23;;
24739;SDS011;45234;48.148;17.128;2024-02-04T11:07:17;1.10;;;0.90;;
24739;SDS011;45234;48.148;17.128;2024-02-04T11:09:45;1.33;;;0.80;;
24739;SDS011;45234;48.148;17.128;2024-02-04T11:12:16;1.80;;;0.98;;
24739;SDS011;45234;48.148;17.128;2024-02-04T11:14:46;2.03;;;0.80;;
24739;SDS011;45234;48.148;17.128;2024-02-04T11:17:19;0.70;;;0.50;;
24739;SDS011;45234;48.148;17.128;2024-02-04T11:25:56;2.45;;;0.70;;
24739;SDS011;45234;48.148;17.128;2024-02-04T11:28:24;1.00;;;0.68;;
24739;SDS011;45234;48.148;17.128;2024-02-04T11:30:54;1.00;;;0.70;;
24739;SDS011;45234;48.148;17.128;2024-02-04T11:33:21;0.75;;;0.70;;
24739;SDS011;45234;48.148;17.128;2024-02-04T11:35:59;1.27;;;0.75;;
24739;SDS011;45234;48.148;17.128;2024-02-04T11:38:30;1.05;;;0.70;;
24739;SDS011;45234;48.148;17.128;2024-02-04T11:41:02;1.25;;;0.85;;
24739;SDS011;45234;48.148;17.128;2024-02-04T11:43:31;0.60;;;0.50;;
24739;SDS011;45234;48.148;17.128;2024-02-04T11:46:00;2.63;;;0.70;;
24739;SDS011;45234;48.148;17.128;2024-02-04T11:48:30;2.67;;;0.60;;
24739;SDS011;45234;48.148;17.128;2024-02-04T11:51:01;1.13;;;0.70;;
24739;SDS011;45234;48.148;17.128;2024-02-04T11:53:32;1.42;;;0.80;;
24739;SDS011;45234;48.148;17.128;2024-02-04T11:56:00;1.15;;;0.82;;
24739;SDS011;45234;48.148;17.128;2024-02-04T11:58:29;1.00;;;0.68;;
24739;SDS011;45234;48.148;17.128;2024-02-04T12:00:58;1.15;;;0.80;;
24739;SDS011;45234;48.148;17.128;2024-02-04T12:03:30;2.05;;;0.88;;
24739;SDS011;45234;48.148;17.128;2024-02-04T12:05:58;0.77;;;0.77;;
24739;SDS011;45234;48.148;17.128;2024-02-04T12:08:29;2.05;;;0.90;;
24739;SDS011;45234;48.148;17.128;2024-02-04T12:11:00;1.55;;;0.80;;
24739;SDS011;45234;48.148;17.128;2024-02-04T12:13:28;1.15;;;0.93;;
24739;SDS011;45234;48.148;17.128;2024-02-04T12:15:56;0.70;;;0.70;;
24739;SDS011;45234;48.148;17.128;2024-02-04T12:18:23;0.77;;;0.77;;
24739;SDS011;45234;48.148;17.128;2024-02-04T12:20:50;0.98;;;0.85;;
24739;SDS011;45234;48.148;17.128;2024-02-04T12:23:18;1.92;;;0.75;;
24739;SDS011;45234;48.148;17.128;2024-02-04T12:25:46;0.90;;;0.60;;
24739;SDS011;45234;48.148;17.128;2024-02-04T12:28:14;0.77;;;0.63;;
24739;SDS011;45234;48.148;17.128;2024-02-04T12:30:51;2.33;;;1.05;;
24739;SDS011;45234;48.148;17.128;2024-02-04T12:33:20;0.90;;;0.82;;
24739;SDS011;45234;48.148;17.128;2024-02-04T12:35:51;0.77;;;0.63;;
24739;SDS011;45234;48.148;17.128;2024-02-04T12:38:18;0.70;;;0.50;;
24739;SDS011;45234;48.148;17.128;2024-02-04T12:40:45;1.10;;;0.90;;
24739;SDS011;45234;48.148;17.128;2024-02-04T12:43:12;1.55;;;0.70;;
24739;SDS011;45234;48.148;17.128;2024-02-04T12:45:39;0.90;;;0.60;;
24739;SDS011;45234;48.148;17.128;2024-02-04T12:48:07;2.58;;;0.77;;
24739;SDS011;45234;48.148;17.128;2024-02-04T12:50:36;1.88;;;0.60;;
24739;SDS011;45234;48.148;17.128;2024-02-04T12:53:04;1.33;;;0.60;;
24739;SDS011;45234;48.148;17.128;2024-02-04T12:55:35;1.02;;;0.77;;
24739;SDS011;45234;48.148;17.128;2024-02-04T13:00:35;0.60;;;0.60;;
24739;SDS011;45234;48.148;17.128;2024-02-04T13:03:03;0.70;;;0.52;;
24739;SDS011;45234;48.148;17.128;2024-02-04T13:05:32;1.38;;;0.85;;
24739;SDS011;45234;48.148;17.128;2024-02-04T13:08:00;0.95;;;0.70;;
24739;SDS011;45234;48.148;17.128;2024-02-04T13:10:29;1.10;;;0.80;;
24739;SDS011;45234;48.148;17.128;2024-02-04T13:13:00;1.45;;;0.85;;
24739;SDS011;45234;48.148;17.128;2024-02-04T13:15:29;0.73;;;0.70;;
24739;SDS011;45234;48.148;17.128;2024-02-04T13:17:57;1.05;;;0.95;;
24739;SDS011;45234;48.148;17.128;2024-02-04T13:20:25;1.05;;;0.70;;
24739;SDS011;45234;48.148;17.128;2024-02-04T13:22:56;0.82;;;0.70;;
24739;SDS011;45234;48.148;17.128;2024-02-04T13:25:23;1.50;;;0.82;;
24739;SDS011;45234;48.148;17.128;2024-02-04T13:27:50;0.60;;;0.60;;
24739;SDS011;45234;48.148;17.128;2024-02-04T13:30:18;0.63;;;0.50;;
24739;SDS011;45234;48.148;17.128;2024-02-04T13:32:45;1.85;;;0.70;;
24739;SDS011;45234;48.148;17.128;2024-02-04T13:35:13;1.67;;;0.70;;
24739;SDS011;45234;48.148;17.128;2024-02-04T13:37:46;0.52;;;0.43;;
24739;SDS011;45234;48.148;17.128;2024-02-04T13:40:14;0.65;;;0.43;;
24739;SDS011;45234;48.148;17.128;2024-02-04T13:42:43;0.70;;;0.70;;
24739;SDS011;45234;48.148;17.128;2024-02-04T13:45:10;1.42;;;0.60;;
24739;SDS011;45234;48.148;17.128;2024-02-04T13:47:42;0.65;;;0.60;;
24739;SDS011;45234;48.148;17.128;2024-02-04T13:50:10;1.13;;;0.70;;
24739;SDS011;45234;48.148;17.128;2024-02-04T13:52:38;0.68;;;0.50;;
24739;SDS011;45234;48.148;17.128;2024-02-04T13:55:05;0.90;;;0.57;;
24739;SDS011;45234;48.148;17.128;2024-02-04T13:57:33;0.55;;;0.38;;
24739;SDS011;45234;48.148;17.128;2024-02-04T14:00:01;1.42;;;0.40;;
24739;SDS011;45234;48.148;17.128;2024-02-04T14:02:31;0.93;;;0.63;;
24739;SDS011;45234;48.148;17.128;2024-02-04T14:04:58;1.23;;;0.63;;
24739;SDS011;45234;48.148;17.128;2024-02-04T14:07:26;1.45;;;0.80;;
24739;SDS011;45234;48.148;17.128;2024-02-04T14:09:54;0.60;;;0.57;;
24739;SDS011;45234;48.148;17.128;2024-02-04T14:12:21;0.70;;;0.60;;
24739;SDS011;45234;48.148;17.128;2024-02-04T14:14:49;1.33;;;0.70;;
24739;SDS011;45234;48.148;17.128;2024-02-04T14:17:16;0.52;;;0.50;;
24739;SDS011;45234;48.148;17.128;2024-02-04T14:19:44;0.80;;;0.70;;
24739;SDS011;45234;48.148;17.128;2024-02-04T14:22:15;1.35;;;0.60;;
24739;SDS011;45234;48.148;17.128;2024-02-04T14:24:46;1.13;;;0.75;;
24739;SDS011;45234;48.148;17.128;2024-02-04T14:27:13;0.70;;;0.60;;
24739;SDS011;45234;48.148;17.128;2024-02-04T14:29:40;0.98;;;0.70;;
24739;SDS011;45234;48.148;17.128;2024-02-04T14:32:08;0.65;;;0.65;;
24739;SDS011;45234;48.148;17.128;2024-02-04T14:34:35;6.30;;;0.50;;
24739;SDS011;45234;48.148;17.128;2024-02-04T14:37:03;1.60;;;0.70;;
24739;SDS011;45234;48.148;17.128;2024-02-04T14:39:30;2.42;;;0.80;;
24739;SDS011;45234;48.148;17.128;2024-02-04T14:41:57;1.58;;;0.60;;
24739;SDS011;45234;48.148;17.128;2024-02-04T14:44:24;0.75;;;0.40;;
24739;SDS011;45234;48.148;17.128;2024-02-04T14:46:51;1.45;;;0.80;;
24739;SDS011;45234;48.148;17.128;2024-02-04T14:49:18;1.05;;;0.65;;
24739;SDS011;45234;48.148;17.128;2024-02-04T14:51:46;0.70;;;0.60;;
24739;SDS011;45234;48.148;17.128;2024-02-04T14:54:13;0.57;;;0.57;;